首页
METAR-TAF:

METAR-TAF

机场 :

阿什维尔, 北卡罗来纳州, 美国

纬度: 35-25-55N, 经度: 082-32-15W, 海拔: 660米

当前天气观测

该预报发布于54分钟前的13:54 UTC
静风
温度 0°C
湿度 80%
气压 1025 hPa
能見度: 16.1公里
天空无云

METAR: KAVL 231354Z 00000KT 10SM CLR 00/M03 A3028 RMK AO2 SLP259 T00001033 $

时间: 09:48 (14:48 UTC)

预报

该预报发布于3小时和14分钟前的11:34 UTC
预报有效从23日的 12点(UTC)到 24日的 12点(UTC)
风速2节,风向多变
能見度: 10公里
少量云层高于24000英尺
从 23日的 1800点(UTC)
风速5节,风向
能見度: 10公里
散云层高于12000英尺
从 23日的 2300点(UTC)
风速4节,风向
能見度: 10公里
多云层高于10000英尺
从 24日的 0300点(UTC)
风速2节,风向多变
能見度: 10公里
多云层高于8000英尺
几率 30%
从 24日的 08点(UTC)到 24日的 12点(UTC)
能見度: 6.4公里
阴天层高于2500英尺
雨, 轻雾

TAF: KAVL 231134Z 2312/2412 VRB02KT P6SM FEW240 FM231800 18005KT P6SM SCT120 FM232300 19004KT P6SM BKN100 FM240300 VRB02KT P6SM BKN080 PROB30 2408/2412 4SM RA BR OVC025

超过4000个机场的气象观测和天气预报(METAR&TAF报告)。

可查询的气象台以黄色和红色小点在地图上表示。

将鼠标移到小点上方,可查看气象台名称。

然后点击查看天气观测和预报。

如需切换地图:点击带黑十字的绿色按钮放大地图;点击带横线的绿色按钮缩小地图;或者点击绿色箭头查看邻近地区的地图。


METAR-TAF: